createdAt,value
2023-04-02T00:00:28.297Z,94
2023-04-02T00:00:59.774Z,94
2023-04-02T00:01:26.055Z,94
2023-04-02T00:01:57.871Z,94
2023-04-02T00:02:28.705Z,94
2023-04-02T00:02:59.812Z,94
2023-04-02T00:03:30.219Z,94
2023-04-02T00:04:02.029Z,94
2023-04-02T00:04:33.400Z,94
2023-04-02T00:05:04.361Z,94
2023-04-02T00:05:34.767Z,94
2023-04-02T00:06:05.721Z,94
2023-04-02T00:06:36.264Z,94
2023-04-02T00:07:07.879Z,94
2023-04-02T00:07:38.064Z,94
2023-04-02T00:08:09.842Z,94
2023-04-02T00:08:40.536Z,94
2023-04-02T00:09:11.726Z,94
2023-04-02T00:09:43.065Z,94
2023-04-02T00:10:13.687Z,94
2023-04-02T00:10:44.355Z,94
2023-04-02T00:11:16.422Z,95
2023-04-02T00:11:46.157Z,95
2023-04-02T00:12:17.675Z,95
2023-04-02T00:12:48.306Z,95
2023-04-02T00:13:19.770Z,95
2023-04-02T00:13:50.087Z,95
2023-04-02T00:14:21.702Z,95
2023-04-02T00:14:53.049Z,95
2023-04-02T00:15:24.872Z,94
2023-04-02T00:15:54.023Z,94
2023-04-02T00:16:25.722Z,94
2023-04-02T00:16:56.041Z,94
2023-04-02T00:17:27.950Z,94
2023-04-02T00:17:59.252Z,94
2023-04-02T00:18:29.805Z,94
2023-04-02T00:19:00.238Z,94
2023-04-02T00:19:31.794Z,94
2023-04-02T00:20:10.623Z,94
2023-04-02T00:20:40.310Z,94
2023-04-02T00:21:04.375Z,94
2023-04-02T00:21:38.237Z,94
2023-04-02T00:22:06.426Z,94
2023-04-02T00:22:37.710Z,94
2023-04-02T00:23:08.024Z,94
2023-04-02T00:23:39.705Z,94
2023-04-02T00:24:10.010Z,94
2023-04-02T00:24:42.402Z,94
2023-04-02T00:25:13.533Z,94
2023-04-02T00:25:43.906Z,94
2023-04-02T00:26:14.073Z,94
2023-04-02T00:26:45.741Z,94
2023-04-02T00:27:16.074Z,93
2023-04-02T00:27:47.940Z,93
2023-04-02T00:28:18.014Z,93
2023-04-02T00:28:49.935Z,93
2023-04-02T00:29:20.046Z,93
2023-04-02T00:29:52.769Z,93
2023-04-02T00:30:24.278Z,93
2023-04-02T00:30:53.778Z,93
2023-04-02T00:31:24.959Z,93
2023-04-02T00:31:55.751Z,93
2023-04-02T00:32:26.092Z,93
2023-04-02T00:32:57.743Z,93
2023-04-02T00:33:28.164Z,93
2023-04-02T00:33:59.710Z,93
2023-04-02T00:34:30.038Z,93
2023-04-02T00:35:02.733Z,93
2023-04-02T00:35:33.332Z,93
2023-04-02T00:36:03.843Z,93
2023-04-02T00:36:34.108Z,93
2023-04-02T00:37:05.727Z,93
2023-04-02T00:37:36.118Z,93
2023-04-02T00:38:08.383Z,93
2023-04-02T00:38:38.062Z,93
2023-04-02T00:39:09.719Z,93
2023-04-02T00:39:40.029Z,93
2023-04-02T00:40:12.217Z,93
2023-04-02T00:40:47.063Z,93
2023-04-02T00:41:13.977Z,93
2023-04-02T00:41:44.331Z,93
2023-04-02T00:42:15.768Z,93
2023-04-02T00:42:46.002Z,93
2023-04-02T00:43:17.687Z,93
2023-04-02T00:43:47.998Z,93
2023-04-02T00:44:19.716Z,92
2023-04-02T00:44:50.051Z,93
2023-04-02T00:45:22.784Z,93
2023-04-02T00:45:53.177Z,93
2023-04-02T00:46:23.869Z,93
2023-04-02T00:46:54.002Z,93
2023-04-02T00:47:25.727Z,93
2023-04-02T00:47:56.049Z,93
2023-04-02T00:48:27.818Z,93
2023-04-02T00:48:58.686Z,93
2023-04-02T00:49:29.691Z,93
2023-04-02T00:50:00.107Z,93
2023-04-02T00:50:32.288Z,92
2023-04-02T00:51:10.567Z,92
2023-04-02T00:51:34.198Z,93
2023-04-02T00:52:04.373Z,93
2023-04-02T00:52:36.746Z,93
2023-04-02T00:53:05.988Z,93
2023-04-02T00:53:37.750Z,93
2023-04-02T00:54:08.106Z,93
2023-04-02T00:54:39.728Z,93
2023-04-02T00:55:10.692Z,93
2023-04-02T00:55:41.725Z,93
2023-04-02T00:56:13.447Z,93
2023-04-02T00:56:43.847Z,93
2023-04-02T00:57:14.085Z,93
2023-04-02T00:57:46.028Z,93
2023-04-02T00:58:15.986Z,92
2023-04-02T00:58:47.726Z,92
2023-04-02T00:59:17.983Z,92
2023-04-02T00:59:49.867Z,92
2023-04-02T01:00:21.398Z,92
2023-04-02T01:00:53.111Z,93
2023-04-02T01:01:23.044Z,92
2023-04-02T01:01:53.729Z,93
2023-04-02T01:02:24.560Z,93
2023-04-02T01:02:55.798Z,93
2023-04-02T01:03:26.101Z,93
2023-04-02T01:03:57.867Z,93
2023-04-02T01:04:28.210Z,93
2023-04-02T01:05:00.331Z,93
2023-04-02T01:05:30.485Z,93
2023-04-02T01:06:01.771Z,92
2023-04-02T01:06:32.996Z,93
2023-04-02T01:07:04.013Z,93
2023-04-02T01:07:34.042Z,93
2023-04-02T01:08:05.719Z,93
2023-04-02T01:08:35.995Z,93
2023-04-02T01:09:07.720Z,93
2023-04-02T01:09:38.055Z,93
2023-04-02T01:10:10.205Z,93
2023-04-02T01:10:39.994Z,93
2023-04-02T01:11:11.122Z,93
2023-04-02T01:11:43.856Z,93
2023-04-02T01:12:13.020Z,93
2023-04-02T01:12:45.011Z,93
2023-04-02T01:13:15.458Z,93
2023-04-02T01:13:46.690Z,93
2023-04-02T01:14:17.000Z,92
2023-04-02T01:14:48.797Z,93
2023-04-02T01:15:20.192Z,93
2023-04-02T01:15:50.905Z,93
2023-04-02T01:16:21.025Z,93
2023-04-02T01:16:53.892Z,93
2023-04-02T01:17:23.059Z,93
2023-04-02T01:17:54.864Z,93
2023-04-02T01:18:25.084Z,93
2023-04-02T01:18:56.685Z,93
2023-04-02T01:19:26.976Z,92
2023-04-02T01:19:58.858Z,92
2023-04-02T01:20:39.378Z,92
2023-04-02T01:21:00.960Z,92
2023-04-02T01:21:31.144Z,92
2023-04-02T01:22:09.397Z,92
2023-04-02T01:22:33.723Z,92
2023-04-02T01:23:04.336Z,92
2023-04-02T01:23:36.597Z,92
2023-04-02T01:24:06.048Z,92
2023-04-02T01:24:37.718Z,92
2023-04-02T01:25:09.158Z,92
2023-04-02T01:25:39.719Z,92
2023-04-02T01:26:10.020Z,92
2023-04-02T01:26:41.768Z,92
2023-04-02T01:27:12.973Z,92
2023-04-02T01:27:43.735Z,92
2023-04-02T01:28:14.109Z,92
2023-04-02T01:28:46.850Z,91
2023-04-02T01:29:16.508Z,91
2023-04-02T01:29:47.674Z,91
2023-04-02T01:30:19.493Z,91
2023-04-02T01:30:49.776Z,91
2023-04-02T01:31:20.037Z,91
2023-04-02T01:31:52.371Z,91
2023-04-02T01:32:23.230Z,91
2023-04-02T01:32:53.761Z,91
2023-04-02T01:33:24.675Z,91
2023-04-02T01:33:55.788Z,91
2023-04-02T01:34:26.831Z,91
2023-04-02T01:34:57.721Z,91
2023-04-02T01:35:28.933Z,91
2023-04-02T01:35:59.693Z,91
2023-04-02T01:36:30.002Z,91
2023-04-02T01:37:01.793Z,91
2023-04-02T01:37:33.003Z,91
2023-04-02T01:38:03.978Z,91
2023-04-02T01:38:34.064Z,91
2023-04-02T01:39:05.659Z,91
2023-04-02T01:39:35.974Z,91
2023-04-02T01:40:08.200Z,91
2023-04-02T01:40:40.215Z,91
2023-04-02T01:41:09.675Z,91
2023-04-02T01:41:39.966Z,91
2023-04-02T01:42:11.703Z,91
2023-04-02T01:42:43.003Z,91
2023-04-02T01:43:13.681Z,91
2023-04-02T01:43:44.279Z,90
2023-04-02T01:44:15.717Z,90
2023-04-02T01:44:46.102Z,90
2023-04-02T01:45:19.474Z,90
2023-04-02T01:45:48.081Z,89
2023-04-02T01:46:19.718Z,89
2023-04-02T01:46:50.077Z,89
2023-04-02T01:47:21.972Z,89
2023-04-02T01:47:53.017Z,89
2023-04-02T01:48:23.702Z,89
2023-04-02T01:48:54.046Z,89
2023-04-02T01:49:25.686Z,89
2023-04-02T01:49:56.006Z,89
2023-04-02T01:50:28.521Z,89
2023-04-02T01:50:58.198Z,89
2023-04-02T01:51:29.750Z,89
2023-04-02T01:52:00.150Z,90
2023-04-02T01:52:31.722Z,90
2023-04-02T01:53:09.996Z,90
2023-04-02T01:53:33.789Z,90
2023-04-02T01:54:04.353Z,90
2023-04-02T01:54:35.729Z,89
2023-04-02T01:55:06.714Z,89
2023-04-02T01:55:37.878Z,88
2023-04-02T01:56:08.690Z,89
2023-04-02T01:56:39.721Z,89
2023-04-02T01:57:10.099Z,89
2023-04-02T01:57:41.705Z,89
2023-04-02T01:58:13.007Z,89
2023-04-02T01:58:44.640Z,89
2023-04-02T01:59:13.960Z,89
2023-04-02T01:59:45.702Z,89
2023-04-02T02:00:18.964Z,89
2023-04-02T02:00:55.087Z,89
2023-04-02T02:01:18.457Z,89
2023-04-02T02:01:49.760Z,89
2023-04-02T02:02:20.119Z,89
2023-04-02T02:02:51.754Z,89
2023-04-02T02:03:22.980Z,89
2023-04-02T02:03:53.789Z,89
2023-04-02T02:04:24.308Z,90
2023-04-02T02:04:55.860Z,89
2023-04-02T02:05:27.479Z,89
2023-04-02T02:05:58.095Z,89
2023-04-02T02:06:28.360Z,89
2023-04-02T02:07:00.176Z,89
2023-04-02T02:07:30.610Z,89
2023-04-02T02:08:01.856Z,89
2023-04-02T02:08:33.039Z,90
2023-04-02T02:09:03.805Z,89
2023-04-02T02:09:34.488Z,89
2023-04-02T02:10:06.460Z,89
2023-04-02T02:10:35.992Z,89
2023-04-02T02:11:07.738Z,90
2023-04-02T02:11:38.175Z,89
2023-04-02T02:12:10.176Z,89
2023-04-02T02:12:40.009Z,90
2023-04-02T02:13:11.817Z,90
2023-04-02T02:13:42.986Z,90
2023-04-02T02:14:13.787Z,90
2023-04-02T02:14:44.281Z,89
2023-04-02T02:15:16.724Z,90
2023-04-02T02:15:46.048Z,90
2023-04-02T02:16:17.782Z,89
2023-04-02T02:16:48.092Z,89
2023-04-02T02:17:19.820Z,89
2023-04-02T02:17:50.100Z,89
2023-04-02T02:18:21.678Z,89
2023-04-02T02:18:53.468Z,89
2023-04-02T02:19:23.881Z,89
2023-04-02T02:19:54.007Z,89
2023-04-02T02:20:26.680Z,89
2023-04-02T02:20:55.943Z,90
2023-04-02T02:21:27.651Z,90
2023-04-02T02:21:58.152Z,90
2023-04-02T02:22:29.720Z,90
2023-04-02T02:23:00.510Z,90
2023-04-02T02:23:31.659Z,90
2023-04-02T02:24:10.167Z,90
2023-04-02T02:24:34.451Z,90
2023-04-02T02:25:05.138Z,89
2023-04-02T02:25:36.850Z,89
2023-04-02T02:26:05.978Z,89
2023-04-02T02:26:37.791Z,89
2023-04-02T02:27:08.007Z,89
2023-04-02T02:27:39.709Z,89
2023-04-02T02:28:09.959Z,89
2023-04-02T02:28:41.765Z,89
2023-04-02T02:29:12.978Z,89
2023-04-02T02:29:43.759Z,89
2023-04-02T02:30:15.092Z,89
2023-04-02T02:30:46.720Z,89
2023-04-02T02:31:15.956Z,89
2023-04-02T02:31:47.910Z,89
2023-04-02T02:32:18.278Z,89
2023-04-02T02:32:49.732Z,90
2023-04-02T02:33:20.010Z,90
2023-04-02T02:33:51.685Z,90
2023-04-02T02:34:23.050Z,90
2023-04-02T02:34:53.693Z,90
2023-04-02T02:35:24.836Z,89
2023-04-02T02:35:55.695Z,89
2023-04-02T02:36:26.615Z,89
2023-04-02T02:36:58.907Z,89
2023-04-02T02:37:28.311Z,89
2023-04-02T02:37:59.693Z,89
2023-04-02T02:38:30.020Z,89
2023-04-02T02:39:02.290Z,89
2023-04-02T02:39:32.976Z,89
2023-04-02T02:40:05.875Z,90
2023-04-02T02:40:37.967Z,90
2023-04-02T02:41:05.714Z,90
2023-04-02T02:41:36.022Z,90
2023-04-02T02:42:07.683Z,90
2023-04-02T02:42:37.999Z,91
2023-04-02T02:43:10.396Z,90
2023-04-02T02:43:39.945Z,91
2023-04-02T02:44:12.738Z,91
2023-04-02T02:44:42.971Z,91
2023-04-02T02:45:14.944Z,90
2023-04-02T02:45:44.362Z,90
2023-04-02T02:46:15.855Z,90
2023-04-02T02:46:45.961Z,90
2023-04-02T02:47:17.782Z,90
2023-04-02T02:47:48.116Z,90
2023-04-02T02:48:19.811Z,90
2023-04-02T02:48:50.014Z,90
2023-04-02T02:49:21.677Z,90
2023-04-02T02:49:52.980Z,90
2023-04-02T02:50:24.205Z,90
2023-04-02T02:50:54.003Z,90
2023-04-02T02:51:25.658Z,90
2023-04-02T02:51:55.968Z,90
2023-04-02T02:52:28.394Z,90
2023-04-02T02:52:58.154Z,90
2023-04-02T02:53:29.656Z,90
2023-04-02T02:53:59.976Z,90
2023-04-02T02:54:31.752Z,90
2023-04-02T02:55:10.728Z,90
2023-04-02T02:55:33.942Z,90
2023-04-02T02:56:04.311Z,90
2023-04-02T02:56:35.846Z,90
2023-04-02T02:57:06.227Z,90
2023-04-02T02:57:37.749Z,90
2023-04-02T02:58:07.959Z,90
2023-04-02T02:58:39.683Z,90
2023-04-02T02:59:09.994Z,90
2023-04-02T02:59:41.666Z,90
2023-04-02T03:00:14.727Z,90
2023-04-02T03:00:47.235Z,90
2023-04-02T03:01:14.076Z,90
2023-04-02T03:01:45.996Z,90
2023-04-02T03:02:16.139Z,90
2023-04-02T03:02:47.999Z,90
2023-04-02T03:03:18.824Z,90
2023-04-02T03:03:49.856Z,90
2023-04-02T03:04:20.034Z,90
2023-04-02T03:04:51.780Z,90
2023-04-02T03:05:23.643Z,90
2023-04-02T03:05:54.317Z,90
2023-04-02T03:06:24.477Z,90
2023-04-02T03:06:55.780Z,90
2023-04-02T03:07:26.055Z,90
2023-04-02T03:07:57.701Z,90
2023-04-02T03:08:28.183Z,90
2023-04-02T03:08:59.870Z,90
2023-04-02T03:09:29.973Z,90
2023-04-02T03:10:03.197Z,90
2023-04-02T03:10:32.934Z,91
2023-04-02T03:11:03.062Z,91
2023-04-02T03:11:34.710Z,91
2023-04-02T03:12:05.181Z,90
2023-04-02T03:12:38.081Z,90
2023-04-02T03:13:06.987Z,90
2023-04-02T03:13:38.728Z,90
2023-04-02T03:14:08.948Z,90
2023-04-02T03:14:40.911Z,90
2023-04-02T03:15:11.964Z,90
2023-04-02T03:15:43.883Z,90
2023-04-02T03:16:13.021Z,90
2023-04-02T03:16:45.286Z,90
2023-04-02T03:17:14.983Z,90
2023-04-02T03:17:47.361Z,90
2023-04-02T03:18:17.017Z,90
2023-04-02T03:18:48.774Z,90
2023-04-02T03:19:19.099Z,90
2023-04-02T03:19:50.983Z,91
2023-04-02T03:20:21.465Z,91
2023-04-02T03:20:53.657Z,90
2023-04-02T03:21:23.063Z,91
2023-04-02T03:21:54.769Z,91
2023-04-02T03:22:25.127Z,91
2023-04-02T03:22:57.599Z,91
2023-04-02T03:23:27.310Z,91
2023-04-02T03:23:59.030Z,90
2023-04-02T03:24:29.221Z,90
2023-04-02T03:25:01.055Z,90
2023-04-02T03:25:31.625Z,90
2023-04-02T03:26:10.108Z,90
2023-04-02T03:26:33.789Z,91
2023-04-02T03:27:04.624Z,90
2023-04-02T03:27:35.821Z,90
2023-04-02T03:28:06.121Z,90
2023-04-02T03:28:37.762Z,90
2023-04-02T03:29:08.083Z,90
2023-04-02T03:29:39.830Z,90
2023-04-02T03:30:11.821Z,90
2023-04-02T03:30:42.024Z,90
2023-04-02T03:31:13.054Z,90
2023-04-02T03:31:43.717Z,90
2023-04-02T03:32:13.975Z,90
2023-04-02T03:32:46.401Z,90
2023-04-02T03:33:16.251Z,90
2023-04-02T03:33:47.725Z,90
2023-04-02T03:34:17.957Z,90
2023-04-02T03:34:49.691Z,90
2023-04-02T03:35:20.501Z,90
2023-04-02T03:35:51.832Z,90
2023-04-02T03:36:23.049Z,90
2023-04-02T03:36:54.012Z,90
2023-04-02T03:37:24.271Z,90
2023-04-02T03:37:55.635Z,90
2023-04-02T03:38:26.154Z,90
2023-04-02T03:38:57.672Z,90
2023-04-02T03:39:28.143Z,90
2023-04-02T03:39:59.762Z,90
2023-04-02T03:40:39.043Z,90
2023-04-02T03:41:01.680Z,90
2023-04-02T03:41:33.376Z,90
2023-04-02T03:42:03.782Z,90
2023-04-02T03:42:33.971Z,90
2023-04-02T03:43:05.652Z,89
2023-04-02T03:43:36.410Z,90
2023-04-02T03:44:07.806Z,90
2023-04-02T03:44:37.988Z,90
2023-04-02T03:45:11.628Z,90
2023-04-02T03:45:40.045Z,90
2023-04-02T03:46:12.432Z,90
2023-04-02T03:46:43.457Z,90
2023-04-02T03:47:13.874Z,90
2023-04-02T03:47:44.460Z,90
2023-04-02T03:48:15.904Z,90
2023-04-02T03:48:46.023Z,90
2023-04-02T03:49:17.683Z,89
2023-04-02T03:49:47.968Z,89
2023-04-02T03:50:20.962Z,90
2023-04-02T03:50:49.979Z,89
2023-04-02T03:51:21.696Z,90
2023-04-02T03:51:52.985Z,90
2023-04-02T03:52:24.001Z,90
2023-04-02T03:52:54.006Z,90
2023-04-02T03:53:25.750Z,90
2023-04-02T03:53:55.936Z,89
2023-04-02T03:54:27.655Z,90
2023-04-02T03:54:57.957Z,89
2023-04-02T03:55:30.324Z,90
2023-04-02T03:56:00.112Z,90
2023-04-02T03:56:31.693Z,90
2023-04-02T03:57:10.008Z,90
2023-04-02T03:57:33.715Z,90
2023-04-02T03:58:04.283Z,90
2023-04-02T03:58:35.832Z,90
2023-04-02T03:59:06.007Z,90
2023-04-02T03:59:37.751Z,90
2023-04-02T04:00:09.028Z,90
2023-04-02T04:00:46.749Z,91
2023-04-02T04:01:10.139Z,91
2023-04-02T04:01:41.695Z,91
2023-04-02T04:02:13.068Z,91
2023-04-02T04:02:43.762Z,91
2023-04-02T04:03:14.049Z,91
2023-04-02T04:03:46.084Z,91
2023-04-02T04:04:16.034Z,90
2023-04-02T04:04:47.761Z,90
2023-04-02T04:05:18.499Z,91
2023-04-02T04:05:49.908Z,91
2023-04-02T04:06:20.288Z,91
2023-04-02T04:06:51.817Z,91
2023-04-02T04:07:22.977Z,91
2023-04-02T04:07:53.704Z,91
2023-04-02T04:08:24.285Z,91
2023-04-02T04:08:55.694Z,91
2023-04-02T04:09:25.936Z,91
2023-04-02T04:09:57.691Z,92
2023-04-02T04:10:29.314Z,92
2023-04-02T04:10:59.101Z,92
2023-04-02T04:11:30.799Z,92
2023-04-02T04:12:01.154Z,92
2023-04-02T04:12:33.749Z,92
2023-04-02T04:13:03.113Z,92
2023-04-02T04:13:34.670Z,92
2023-04-02T04:14:04.937Z,92
2023-04-02T04:14:36.624Z,92
2023-04-02T04:15:08.018Z,92
2023-04-02T04:15:38.717Z,92
2023-04-02T04:16:08.963Z,93
2023-04-02T04:16:40.894Z,93
2023-04-02T04:17:11.491Z,93
2023-04-02T04:17:43.820Z,93
2023-04-02T04:18:12.958Z,93
2023-04-02T04:18:45.075Z,93
2023-04-02T04:19:15.050Z,93
2023-04-02T04:19:46.714Z,93
2023-04-02T04:20:17.495Z,93
2023-04-02T04:20:48.902Z,93
2023-04-02T04:21:19.025Z,93
2023-04-02T04:21:50.691Z,94
2023-04-02T04:22:21.006Z,94
2023-04-02T04:22:53.659Z,94
2023-04-02T04:23:22.950Z,94
2023-04-02T04:23:55.596Z,94
2023-04-02T04:24:25.051Z,94
2023-04-02T04:24:56.668Z,94
2023-04-02T04:25:27.493Z,95
2023-04-02T04:25:58.989Z,95
2023-04-02T04:26:29.048Z,95
2023-04-02T04:27:01.165Z,95
2023-04-02T04:27:30.968Z,95
2023-04-02T04:28:09.217Z,95
2023-04-02T04:28:34.462Z,95
2023-04-02T04:29:04.443Z,95
2023-04-02T04:29:35.879Z,95
2023-04-02T04:30:07.128Z,95
2023-04-02T04:30:38.210Z,95
2023-04-02T04:31:08.065Z,95
2023-04-02T04:31:39.719Z,95
2023-04-02T04:32:10.199Z,95
2023-04-02T04:32:42.714Z,95
2023-04-02T04:33:13.535Z,95
2023-04-02T04:33:43.679Z,95
2023-04-02T04:34:14.025Z,95
2023-04-02T04:34:45.808Z,95
2023-04-02T04:35:16.500Z,95
2023-04-02T04:35:47.727Z,95
2023-04-02T04:36:18.266Z,95
2023-04-02T04:36:49.682Z,95
2023-04-02T04:37:20.687Z,95
2023-04-02T04:37:51.759Z,95
2023-04-02T04:38:22.996Z,95
2023-04-02T04:38:53.687Z,95
2023-04-02T04:39:24.290Z,95
2023-04-02T04:39:55.788Z,95
2023-04-02T04:40:28.941Z,95
2023-04-02T04:40:57.847Z,95
2023-04-02T04:41:28.165Z,95
2023-04-02T04:41:59.771Z,95
2023-04-02T04:42:30.095Z,95
2023-04-02T04:43:01.960Z,95
2023-04-02T04:43:32.965Z,95
2023-04-02T04:44:04.118Z,95
2023-04-02T04:44:34.007Z,95
2023-04-02T04:45:06.980Z,95
2023-04-02T04:45:36.285Z,95
2023-04-02T04:46:07.744Z,95
2023-04-02T04:46:38.164Z,95
2023-04-02T04:47:09.673Z,95
2023-04-02T04:47:40.108Z,95
2023-04-02T04:48:11.624Z,95
2023-04-02T04:48:42.946Z,95
2023-04-02T04:49:13.652Z,95
2023-04-02T04:49:44.598Z,95
2023-04-02T04:50:16.220Z,95
2023-04-02T04:50:46.581Z,95
2023-04-02T04:51:18.782Z,95
2023-04-02T04:51:47.970Z,95
2023-04-02T04:52:19.695Z,95
2023-04-02T04:52:50.071Z,95
2023-04-02T04:53:21.816Z,95
2023-04-02T04:53:53.012Z,95
2023-04-02T04:54:23.722Z,95
2023-04-02T04:54:54.107Z,95
2023-04-02T04:55:27.272Z,95
2023-04-02T04:55:56.997Z,95
2023-04-02T04:56:27.657Z,95
2023-04-02T04:56:58.011Z,95
2023-04-02T04:57:30.269Z,95
2023-04-02T04:57:59.919Z,95
2023-04-02T04:58:31.660Z,95
2023-04-02T04:59:09.925Z,95
2023-04-02T04:59:34.227Z,95
2023-04-02T05:00:06.990Z,95
2023-04-02T05:00:45.990Z,95
2023-04-02T05:01:06.165Z,95
2023-04-02T05:01:37.087Z,95
2023-04-02T05:02:08.741Z,95
2023-04-02T05:02:39.094Z,95
2023-04-02T05:03:10.649Z,95
2023-04-02T05:03:40.934Z,95
2023-04-02T05:04:13.813Z,95
2023-04-02T05:04:43.248Z,95
2023-04-02T05:05:15.319Z,95
2023-04-02T05:05:44.918Z,95
2023-04-02T05:06:16.771Z,95
2023-04-02T05:06:46.945Z,95
2023-04-02T05:07:18.621Z,95
2023-04-02T05:07:49.182Z,95
2023-04-02T05:08:20.671Z,95
2023-04-02T05:08:50.953Z,95
2023-04-02T05:09:23.678Z,95
2023-04-02T05:09:52.968Z,95
2023-04-02T05:10:26.115Z,96
2023-04-02T05:10:55.646Z,96
2023-04-02T05:11:26.121Z,96
2023-04-02T05:11:57.846Z,96
2023-04-02T05:12:28.118Z,96
2023-04-02T05:12:59.817Z,96
2023-04-02T05:13:30.101Z,96
2023-04-02T05:14:02.582Z,96
2023-04-02T05:14:33.136Z,96
2023-04-02T05:15:05.108Z,96
2023-04-02T05:15:35.287Z,96
2023-04-02T05:16:05.971Z,96
2023-04-02T05:16:36.185Z,96
2023-04-02T05:17:07.896Z,96
2023-04-02T05:17:38.710Z,96
2023-04-02T05:18:09.972Z,96
2023-04-02T05:18:40.159Z,96
2023-04-02T05:19:13.825Z,97
2023-04-02T05:19:43.143Z,97
2023-04-02T05:20:13.800Z,97
2023-04-02T05:20:47.553Z,97
2023-04-02T05:21:15.083Z,97
2023-04-02T05:21:46.833Z,97
2023-04-02T05:22:17.118Z,97
2023-04-02T05:22:48.883Z,97
2023-04-02T05:23:19.255Z,97
2023-04-02T05:23:51.169Z,97
2023-04-02T05:24:21.702Z,97
2023-04-02T05:24:53.920Z,97
2023-04-02T05:25:23.612Z,97
2023-04-02T05:25:54.839Z,97
2023-04-02T05:26:25.171Z,97
2023-04-02T05:26:56.856Z,97
2023-04-02T05:27:27.170Z,97
2023-04-02T05:27:58.999Z,97
2023-04-02T05:28:29.672Z,97
2023-04-02T05:29:00.907Z,97
2023-04-02T05:29:31.137Z,97
2023-04-02T05:30:10.351Z,97
2023-04-02T05:30:34.941Z,97
2023-04-02T05:31:04.968Z,97
2023-04-02T05:31:37.334Z,97
2023-04-02T05:32:06.088Z,97
2023-04-02T05:32:37.987Z,97
2023-04-02T05:33:08.441Z,97
2023-04-02T05:33:39.784Z,97
2023-04-02T05:34:10.091Z,97
2023-04-02T05:34:41.980Z,97
2023-04-02T05:35:13.600Z,97
2023-04-02T05:35:43.802Z,97
2023-04-02T05:36:14.244Z,97
2023-04-02T05:36:46.421Z,97
2023-04-02T05:37:16.093Z,97
2023-04-02T05:37:48.357Z,97
2023-04-02T05:38:18.207Z,97
2023-04-02T05:38:49.835Z,97
2023-04-02T05:39:20.136Z,97
2023-04-02T05:39:51.778Z,97
2023-04-02T05:40:24.176Z,97
2023-04-02T05:40:53.887Z,97
2023-04-02T05:41:24.451Z,97
2023-04-02T05:41:55.980Z,97
2023-04-02T05:42:26.128Z,97
2023-04-02T05:42:57.839Z,97
2023-04-02T05:43:28.107Z,97
2023-04-02T05:43:59.825Z,97
2023-04-02T05:44:30.767Z,97
2023-04-02T05:45:03.154Z,97
2023-04-02T05:45:33.424Z,97
2023-04-02T05:46:04.117Z,97
2023-04-02T05:46:34.341Z,97
2023-04-02T05:47:05.927Z,97
2023-04-02T05:47:36.158Z,97
2023-04-02T05:48:07.938Z,97
2023-04-02T05:48:38.468Z,97
2023-04-02T05:49:09.942Z,97
2023-04-02T05:49:40.131Z,97
2023-04-02T05:50:12.314Z,97
2023-04-02T05:50:43.242Z,97
2023-04-02T05:51:16.131Z,97
2023-04-02T05:51:44.445Z,97
2023-04-02T05:52:15.122Z,97
2023-04-02T05:52:46.871Z,97
2023-04-02T05:53:17.112Z,97
2023-04-02T05:53:49.196Z,97
2023-04-02T05:54:19.208Z,97
2023-04-02T05:54:50.978Z,97
2023-04-02T05:55:22.019Z,97
2023-04-02T05:55:53.819Z,97
2023-04-02T05:56:23.109Z,97
2023-04-02T05:56:54.964Z,97
2023-04-02T05:57:35.847Z,97
2023-04-02T05:58:17.675Z,97
2023-04-02T05:58:35.620Z,97
2023-04-02T05:58:59.792Z,97
2023-04-02T05:59:29.207Z,97
2023-04-02T06:00:01.665Z,97
2023-04-02T06:00:32.010Z,97
2023-04-02T06:01:13.609Z,97
2023-04-02T06:01:33.775Z,97
2023-04-02T06:02:04.433Z,97
2023-04-02T06:02:35.870Z,97
2023-04-02T06:03:06.224Z,97
2023-04-02T06:03:37.878Z,97
2023-04-02T06:04:08.383Z,97
2023-04-02T06:04:40.467Z,97
2023-04-02T06:05:10.633Z,97
2023-04-02T06:05:42.096Z,97
2023-04-02T06:06:14.644Z,97
2023-04-02T06:06:43.815Z,97
2023-04-02T06:07:14.086Z,97
2023-04-02T06:07:49.861Z,97
2023-04-02T06:08:16.128Z,97
2023-04-02T06:08:47.441Z,97
2023-04-02T06:09:18.837Z,97
2023-04-02T06:09:49.110Z,97
2023-04-02T06:10:24.135Z,98
2023-04-02T06:10:51.225Z,98
2023-04-02T06:11:23.456Z,98
2023-04-02T06:11:53.867Z,98
2023-04-02T06:12:24.414Z,98
2023-04-02T06:12:57.020Z,98
2023-04-02T06:13:26.103Z,98
2023-04-02T06:13:57.801Z,98
2023-04-02T06:14:28.029Z,98
2023-04-02T06:14:59.771Z,98
2023-04-02T06:15:31.288Z,98
2023-04-02T06:16:01.881Z,98
2023-04-02T06:16:33.390Z,98
2023-04-02T06:17:05.122Z,98
2023-04-02T06:17:34.556Z,98
2023-04-02T06:18:06.503Z,98
2023-04-02T06:18:36.068Z,98
2023-04-02T06:19:07.931Z,98
2023-04-02T06:19:38.047Z,98
2023-04-02T06:20:10.244Z,98
2023-04-02T06:20:40.097Z,98
2023-04-02T06:21:11.811Z,98
2023-04-02T06:21:43.138Z,98
2023-04-02T06:22:13.823Z,98
2023-04-02T06:22:44.445Z,98
2023-04-02T06:23:15.857Z,99
2023-04-02T06:23:46.179Z,99
2023-04-02T06:24:17.897Z,99
2023-04-02T06:24:48.054Z,99
2023-04-02T06:25:20.519Z,99
2023-04-02T06:25:50.178Z,99
2023-04-02T06:26:21.877Z,99
2023-04-02T06:26:53.218Z,99
2023-04-02T06:27:23.868Z,99
2023-04-02T06:27:54.123Z,99
2023-04-02T06:28:26.043Z,99
2023-04-02T06:28:56.645Z,99
2023-04-02T06:29:27.786Z,99
2023-04-02T06:29:58.029Z,99
2023-04-02T06:30:30.688Z,99
2023-04-02T06:31:00.143Z,99
2023-04-02T06:31:32.278Z,99
2023-04-02T06:32:10.553Z,99
2023-04-02T06:32:33.803Z,99
2023-04-02T06:33:04.621Z,99
2023-04-02T06:33:35.864Z,99
2023-04-02T06:34:06.092Z,99
2023-04-02T06:34:37.862Z,99
2023-04-02T06:35:08.645Z,99
2023-04-02T06:35:39.769Z,99
2023-04-02T06:36:10.141Z,99
2023-04-02T06:36:41.737Z,99
2023-04-02T06:37:13.253Z,99
2023-04-02T06:37:43.914Z,99
2023-04-02T06:38:14.086Z,99
2023-04-02T06:38:45.788Z,99
2023-04-02T06:39:16.322Z,99
2023-04-02T06:39:47.758Z,99
2023-04-02T06:40:18.675Z,99
2023-04-02T06:40:49.994Z,99
2023-04-02T06:41:20.106Z,99
2023-04-02T06:41:51.902Z,99
2023-04-02T06:42:23.271Z,99
2023-04-02T06:42:53.841Z,99
2023-04-02T06:43:24.395Z,99
2023-04-02T06:43:55.783Z,99
2023-04-02T06:44:26.110Z,99
2023-04-02T06:44:59.653Z,99
2023-04-02T06:45:29.285Z,99
2023-04-02T06:46:00.135Z,99
2023-04-02T06:46:30.251Z,99
2023-04-02T06:47:01.842Z,99
2023-04-02T06:47:33.139Z,99
2023-04-02T06:48:03.977Z,99
2023-04-02T06:48:34.166Z,99
2023-04-02T06:49:05.888Z,99
2023-04-02T06:49:36.168Z,99
2023-04-02T06:50:08.417Z,99
2023-04-02T06:50:38.161Z,99
2023-04-02T06:51:09.964Z,99
2023-04-02T06:51:40.148Z,99
2023-04-02T06:52:11.905Z,99
2023-04-02T06:52:43.153Z,99
2023-04-02T06:53:13.943Z,99
2023-04-02T06:53:44.491Z,99
2023-04-02T06:54:15.831Z,99
2023-04-02T06:54:46.192Z,99
2023-04-02T06:55:18.579Z,99
2023-04-02T06:55:48.965Z,99
2023-04-02T06:56:19.892Z,99
2023-04-02T06:56:50.157Z,99
2023-04-02T06:57:21.901Z,99
2023-04-02T06:57:53.070Z,99
2023-04-02T06:58:24.342Z,99
2023-04-02T06:58:54.175Z,99
2023-04-02T06:59:25.860Z,99
2023-04-02T06:59:56.078Z,99
2023-04-02T07:00:29.724Z,99
2023-04-02T07:01:04.440Z,99
2023-04-02T07:01:30.917Z,99
2023-04-02T07:02:00.317Z,99
2023-04-02T07:02:31.934Z,99
2023-04-02T07:03:10.721Z,99
2023-04-02T07:03:33.831Z,99
2023-04-02T07:04:04.525Z,99
2023-04-02T07:04:36.017Z,99
2023-04-02T07:05:08.205Z,99
2023-04-02T07:05:38.863Z,99
2023-04-02T07:06:08.089Z,99
2023-04-02T07:06:39.769Z,99
2023-04-02T07:07:10.128Z,99
2023-04-02T07:07:41.826Z,99
2023-04-02T07:08:13.099Z,99
2023-04-02T07:08:44.066Z,99
2023-04-02T07:09:14.869Z,99
2023-04-02T07:09:45.869Z,99
2023-04-02T07:10:16.670Z,99
2023-04-02T07:10:47.334Z,99
2023-04-02T07:11:20.628Z,99
2023-04-02T07:11:50.908Z,99
2023-04-02T07:12:20.200Z,99
2023-04-02T07:12:52.889Z,99
2023-04-02T07:13:23.082Z,99
2023-04-02T07:13:53.772Z,99
2023-04-02T07:14:24.416Z,99
2023-04-02T07:14:55.870Z,99
2023-04-02T07:15:26.968Z,99
2023-04-02T07:15:57.923Z,99
2023-04-02T07:16:28.210Z,99
2023-04-02T07:16:59.789Z,99
2023-04-02T07:17:30.145Z,99
2023-04-02T07:18:03.096Z,99
2023-04-02T07:18:33.611Z,99
2023-04-02T07:19:03.932Z,99
2023-04-02T07:19:34.162Z,99
2023-04-02T07:20:06.821Z,99
2023-04-02T07:20:41.178Z,99
2023-04-02T07:21:07.877Z,99
2023-04-02T07:21:38.136Z,99
2023-04-02T07:22:09.956Z,99